Time;durP1;ratioP1;P1;durP2;ratioP2;P2;SDS_P1;SDS_P2;PMS_P1;PMS_P2;Temp;Humidity;BMP_temperature;BMP_pressure;BME280_temperature;BME280_humidity;BME280_pressure;Samples;Min_cycle;Max_cycle;Signal;HPM_P1;HPM_P2
2023/12/08 00:00:06;;;;;;;0.40;0.30;;;;;;;7.73;100.00;95010.09;5132232;27;20426;-57
2023/12/08 00:02:35;;;;;;;0.30;0.30;;;;;;;7.77;100.00;95007.75;5133119;27;20434;-56
2023/12/08 00:05:06;;;;;;;0.33;0.27;;;;;;;7.84;100.00;95003.03;5132390;27;20804;-55
2023/12/08 00:07:35;;;;;;;0.40;0.40;;;;;;;7.95;100.00;95010.69;5133181;27;20470;-56
2023/12/08 00:10:03;;;;;;;0.30;0.20;;;;;;;7.75;100.00;95015.91;5131949;27;20434;-56
2023/12/08 00:12:32;;;;;;;0.50;0.50;;;;;;;7.97;100.00;95019.13;5132133;27;20438;-57
2023/12/08 00:15:00;;;;;;;0.30;0.20;;;;;;;7.82;100.00;95016.47;5132299;27;20439;-57
2023/12/08 00:17:31;;;;;;;0.30;0.20;;;;;;;7.71;100.00;95016.69;5132288;27;20448;-57
2023/12/08 00:20:00;;;;;;;0.43;0.30;;;;;;;8.00;100.00;95025.75;5132701;27;20437;-56
2023/12/08 00:22:30;;;;;;;0.40;0.40;;;;;;;8.11;100.00;95020.25;5131610;27;20423;-56
2023/12/08 00:24:59;;;;;;;0.30;0.20;;;;;;;8.03;100.00;95030.50;5132215;27;20441;-56
2023/12/08 00:27:27;;;;;;;0.30;0.20;;;;;;;8.18;100.00;95038.47;5132056;27;20502;-56
2023/12/08 00:29:56;;;;;;;0.30;0.20;;;;;;;8.40;100.00;95033.78;5132472;27;20430;-56
2023/12/08 00:32:25;;;;;;;0.40;0.30;;;;;;;8.41;100.00;95037.22;5119052;27;20445;-57
2023/12/08 00:34:55;;;;;;;0.30;0.30;;;;;;;8.12;100.00;95032.38;5132241;27;20460;-56
2023/12/08 00:37:25;;;;;;;0.30;0.20;;;;;;;7.95;100.00;95031.00;5132377;27;20906;-57
2023/12/08 00:39:55;;;;;;;0.50;0.33;;;;;;;7.92;100.00;95028.91;5132219;28;20430;-56
2023/12/08 00:42:24;;;;;;;0.30;0.20;;;;;;;7.98;100.00;95033.13;5132072;27;20441;-56
2023/12/08 00:44:52;;;;;;;0.30;0.20;;;;;;;7.95;100.00;95046.84;5132240;28;20864;-57
2023/12/08 00:47:21;;;;;;;0.30;0.20;;;;;;;7.76;100.00;95048.38;5132687;28;20466;-56
2023/12/08 00:49:50;;;;;;;0.40;0.30;;;;;;;7.40;100.00;95047.41;5131601;27;20477;-57
2023/12/08 00:52:20;;;;;;;0.30;0.23;;;;;;;7.23;100.00;95049.41;5132241;28;20466;-56
2023/12/08 00:54:49;;;;;;;0.40;0.30;;;;;;;7.55;100.00;95048.28;5132229;27;20434;-57
2023/12/08 00:57:19;;;;;;;1.20;1.20;;;;;;;7.44;100.00;95048.47;5132434;28;20438;-57
2023/12/08 00:59:48;;;;;;;0.43;0.40;;;;;;;7.50;100.00;95058.78;5132023;27;20504;-56
2023/12/08 01:02:16;;;;;;;0.30;0.20;;;;;;;7.60;100.00;95058.84;5132406;27;20439;-57
2023/12/08 01:04:45;;;;;;;0.30;0.20;;;;;;;7.40;100.00;95060.56;5131685;27;20981;-57
2023/12/08 01:07:14;;;;;;;0.30;0.20;;;;;;;7.38;100.00;95049.50;5124628;28;20508;-56
2023/12/08 01:09:42;;;;;;;0.30;0.20;;;;;;;7.53;100.00;95060.13;5125321;28;20436;-56
2023/12/08 01:12:11;;;;;;;0.40;0.40;;;;;;;7.28;100.00;95065.25;5123463;28;20439;-56
2023/12/08 01:14:41;;;;;;;1.50;0.30;;;;;;;7.14;100.00;95062.25;5132037;28;20798;-57
2023/12/08 01:17:09;;;;;;;0.30;0.20;;;;;;;7.09;100.00;95069.34;5132350;28;20525;-57
2023/12/08 01:19:38;;;;;;;3.80;0.30;;;;;;;7.07;100.00;95064.31;5118229;27;20442;-57
2023/12/08 01:22:07;;;;;;;0.40;0.40;;;;;;;7.09;100.00;95064.84;5131905;28;20875;-57
2023/12/08 01:24:35;;;;;;;0.30;0.20;;;;;;;7.28;100.00;95070.53;5106022;28;20438;-56
2023/12/08 01:27:04;;;;;;;0.30;0.20;;;;;;;7.14;100.00;95069.38;5131611;28;20445;-57
2023/12/08 01:29:33;;;;;;;0.60;0.60;;;;;;;6.97;100.00;95065.06;5132058;28;20521;-57
2023/12/08 01:32:03;;;;;;;0.50;0.40;;;;;;;6.68;100.00;95068.25;5131422;27;20426;-57
2023/12/08 01:34:32;;;;;;;0.40;0.20;;;;;;;6.70;100.00;95050.34;5132748;27;20514;-57
2023/12/08 01:37:00;;;;;;;0.30;0.20;;;;;;;6.80;100.00;95056.50;5135147;27;20952;-56
2023/12/08 01:39:29;;;;;;;0.60;0.60;;;;;;;7.11;100.00;95073.31;5135983;27;20473;-57
2023/12/08 01:41:58;;;;;;;0.43;0.30;;;;;;;6.77;100.00;95072.78;5136024;27;20461;-56
2023/12/08 01:44:26;;;;;;;0.30;0.20;;;;;;;7.10;100.00;95069.09;5135633;27;20431;-56
2023/12/08 01:46:55;;;;;;;0.50;0.40;;;;;;;7.28;100.00;95073.97;5135308;27;20430;-57
2023/12/08 01:49:25;;;;;;;0.40;0.30;;;;;;;7.38;100.00;95074.03;5135571;27;20875;-56
2023/12/08 01:51:53;;;;;;;0.30;0.20;;;;;;;7.03;100.00;95066.66;5121090;27;20517;-57
2023/12/08 01:54:22;;;;;;;0.60;0.30;;;;;;;6.84;100.00;95072.56;5135502;27;20942;-57
2023/12/08 01:56:51;;;;;;;0.30;0.20;;;;;;;7.11;100.00;95077.81;5135638;27;20434;-57
2023/12/08 01:59:21;;;;;;;0.40;0.30;;;;;;;6.90;100.00;95069.75;5135515;27;20473;-57
2023/12/08 02:01:49;;;;;;;0.40;0.30;;;;;;;7.01;100.00;95067.97;5134752;27;20503;-57
2023/12/08 02:04:18;;;;;;;0.50;0.30;;;;;;;6.75;100.00;95071.47;5135198;27;20466;-57
2023/12/08 02:06:48;;;;;;;0.40;0.30;;;;;;;6.71;100.00;95071.16;5135082;27;20751;-56
2023/12/08 02:09:18;;;;;;;0.37;0.23;;;;;;;7.03;100.00;95071.16;5134042;27;21067;-56
2023/12/08 02:11:46;;;;;;;0.30;0.30;;;;;;;6.79;100.00;95033.03;5123270;27;20445;-56
2023/12/08 02:14:15;;;;;;;0.60;0.30;;;;;;;7.07;100.00;95051.16;5134046;27;20918;-56
2023/12/08 02:16:52;;;;;;;0.30;0.20;;;;;;;7.19;100.00;95078.09;5135058;27;20539;-56
2023/12/08 02:19:22;;;;;;;0.30;0.20;;;;;;;7.29;100.00;95080.00;5134727;27;20498;-56
2023/12/08 02:21:52;;;;;;;0.30;0.30;;;;;;;7.14;100.00;95030.63;5135171;27;20434;-56
2023/12/08 02:24:22;;;;;;;0.30;0.20;;;;;;;7.61;100.00;95078.09;5135108;27;20521;-56
2023/12/08 02:26:51;;;;;;;0.30;0.20;;;;;;;7.67;100.00;95082.34;5134732;27;20442;-56
2023/12/08 02:29:19;;;;;;;0.40;0.20;;;;;;;7.68;100.00;95076.81;5134691;27;20552;-56
2023/12/08 02:31:57;;;;;;;0.40;0.30;;;;;;;7.68;100.00;95086.56;5135069;27;20521;-57
2023/12/08 02:34:27;;;;;;;0.30;0.20;;;;;;;7.79;100.00;95085.59;5134270;27;20448;-57
2023/12/08 02:36:59;;;;;;;0.30;0.20;;;;;;;7.99;100.00;95084.88;5134442;27;20439;-57
2023/12/08 02:39:30;;;;;;;0.40;0.30;;;;;;;7.82;100.00;95079.00;5134862;27;20499;-57
2023/12/08 02:41:58;;;;;;;0.30;0.20;;;;;;;7.83;100.00;95091.13;5134030;27;20426;-56
2023/12/08 02:44:27;;;;;;;0.30;0.30;;;;;;;8.02;100.00;95094.91;5134662;27;20430;-56
2023/12/08 02:46:56;;;;;;;0.40;0.20;;;;;;;7.96;100.00;95094.09;5132947;27;20518;-57
2023/12/08 02:49:24;;;;;;;0.30;0.20;;;;;;;8.12;100.00;95087.81;5134453;27;20494;-56
2023/12/08 02:51:53;;;;;;;0.50;0.40;;;;;;;8.10;100.00;95076.72;5134125;27;20438;-57
2023/12/08 02:54:21;;;;;;;0.40;0.30;;;;;;;8.04;100.00;95092.81;5134365;27;20466;-57
2023/12/08 02:56:51;;;;;;;0.40;0.30;;;;;;;8.20;100.00;95084.66;5134103;27;20988;-57
2023/12/08 02:59:20;;;;;;;0.30;0.20;;;;;;;8.05;100.00;95081.97;5134587;27;20435;-57
2023/12/08 03:01:48;;;;;;;0.40;0.30;;;;;;;8.29;100.00;95092.91;5133893;27;20521;-57
2023/12/08 03:04:17;;;;;;;0.40;0.30;;;;;;;8.29;100.00;95085.00;5134068;27;20430;-57
2023/12/08 03:06:46;;;;;;;0.30;0.20;;;;;;;8.28;100.00;95086.03;5133992;27;20458;-57
2023/12/08 03:09:14;;;;;;;0.30;0.20;;;;;;;8.41;100.00;95087.41;5133217;27;20569;-57
2023/12/08 03:11:43;;;;;;;0.53;0.53;;;;;;;8.08;100.00;95080.66;5107705;27;20468;-56
2023/12/08 03:14:13;;;;;;;0.30;0.20;;;;;;;8.26;100.00;95085.47;5133360;27;21003;-56
2023/12/08 03:16:41;;;;;;;0.30;0.30;;;;;;;7.96;100.00;95078.28;5134360;27;20438;-56
2023/12/08 03:19:10;;;;;;;0.30;0.20;;;;;;;7.84;100.00;95087.44;5133246;27;20434;-56
2023/12/08 03:21:38;;;;;;;0.87;0.57;;;;;;;7.88;100.00;95080.59;5133530;27;20476;-56
2023/12/08 03:24:07;;;;;;;0.50;0.30;;;;;;;7.53;100.00;95087.31;5133833;27;20434;-56
2023/12/08 03:26:36;;;;;;;0.30;0.20;;;;;;;7.04;100.00;95084.06;5134085;27;20449;-56
2023/12/08 03:29:04;;;;;;;0.50;0.40;;;;;;;6.89;100.00;95085.78;5133332;27;20478;-56
2023/12/08 03:31:34;;;;;;;0.53;0.50;;;;;;;6.91;100.00;95081.84;5133532;27;20918;-56
2023/12/08 03:34:03;;;;;;;0.50;0.40;;;;;;;7.27;100.00;95082.09;5133413;27;20427;-56
2023/12/08 03:36:32;;;;;;;0.50;0.40;;;;;;;7.27;100.00;95088.19;5125767;27;20438;-56
2023/12/08 03:39:00;;;;;;;0.97;0.40;;;;;;;7.30;100.00;95084.25;5132967;27;20832;-56
2023/12/08 03:41:29;;;;;;;0.50;0.40;;;;;;;7.02;100.00;95080.09;5133621;27;20505;-56
2023/12/08 03:43:58;;;;;;;0.40;0.30;;;;;;;6.96;100.00;95081.09;5133081;27;20437;-56
2023/12/08 03:46:26;;;;;;;0.40;0.30;;;;;;;6.98;100.00;95081.66;5133328;27;20435;-57
2023/12/08 03:48:56;;;;;;;0.43;0.37;;;;;;;7.30;100.00;95082.41;5132750;27;20518;-56
2023/12/08 03:51:25;;;;;;;0.40;0.30;;;;;;;7.02;100.00;95075.63;5133301;27;20442;-56
2023/12/08 03:53:54;;;;;;;0.40;0.30;;;;;;;7.00;100.00;95074.28;5133356;27;20462;-56
2023/12/08 03:56:22;;;;;;;0.30;0.20;;;;;;;7.14;100.00;95072.00;5132622;27;20449;-56
2023/12/08 03:58:51;;;;;;;0.47;0.30;;;;;;;6.93;100.00;95066.59;5133296;27;20438;-57
2023/12/08 04:01:20;;;;;;;0.40;0.30;;;;;;;7.12;100.00;95064.34;5132568;27;20793;-57
2023/12/08 04:03:49;;;;;;;0.30;0.30;;;;;;;6.83;100.00;95073.63;5132923;27;20439;-56
2023/12/08 04:06:19;;;;;;;0.47;0.33;;;;;;;7.04;100.00;95072.72;5132708;27;20437;-57
2023/12/08 04:08:47;;;;;;;0.30;0.20;;;;;;;7.10;100.00;95071.72;5132887;27;20546;-57
2023/12/08 04:11:16;;;;;;;3.43;0.60;;;;;;;6.91;100.00;95067.88;5133052;27;20455;-57
2023/12/08 04:13:44;;;;;;;0.40;0.30;;;;;;;6.83;99.30;95074.41;5132943;27;20441;-57
2023/12/08 04:16:15;;;;;;;0.30;0.20;;;;;;;6.89;97.78;95068.16;5132849;27;20446;-57
2023/12/08 04:18:44;;;;;;;1.37;0.60;;;;;;;6.72;100.00;95066.69;5132914;27;20453;-57
2023/12/08 04:21:19;;;;;;;0.73;0.73;;;;;;;7.15;100.00;95082.31;5132329;27;20458;-57
2023/12/08 04:23:47;;;;;;;0.30;0.20;;;;;;;7.28;100.00;95075.81;5131981;27;20441;-57
2023/12/08 04:26:24;;;;;;;0.33;0.23;;;;;;;7.64;100.00;95075.75;5132657;27;20431;-57
2023/12/08 04:28:54;;;;;;;0.40;0.30;;;;;;;7.92;100.00;95077.19;5132147;27;20449;-57
2023/12/08 04:31:22;;;;;;;0.73;0.50;;;;;;;8.03;100.00;95078.00;5132389;27;20529;-57
2023/12/08 04:33:52;;;;;;;0.37;0.30;;;;;;;8.11;99.17;95074.88;5132360;27;20998;-57
2023/12/08 04:36:22;;;;;;;3.40;0.70;;;;;;;8.14;100.00;95075.16;5132409;27;20487;-57
2023/12/08 04:38:51;;;;;;;0.30;0.30;;;;;;;8.19;98.58;95074.38;5132616;27;20479;-56
2023/12/08 04:41:19;;;;;;;0.50;0.50;;;;;;;8.26;99.09;95077.56;5132084;28;20858;-58
2023/12/08 04:43:48;;;;;;;0.93;0.93;;;;;;;8.22;99.28;95076.50;5131856;28;20442;-58
2023/12/08 04:46:17;;;;;;;0.30;0.20;;;;;;;8.25;99.05;95079.41;5130776;27;20443;-57
2023/12/08 04:48:46;;;;;;;0.93;0.57;;;;;;;8.26;95.97;95086.31;5131856;28;20503;-58
2023/12/08 04:51:15;;;;;;;0.40;0.30;;;;;;;8.09;94.26;95087.56;5132156;27;20466;-58
2023/12/08 04:53:45;;;;;;;0.40;0.30;;;;;;;7.99;93.69;95090.16;5131774;27;20442;-58
2023/12/08 04:56:13;;;;;;;0.37;0.30;;;;;;;8.12;94.41;95090.44;5132474;27;20481;-58
2023/12/08 04:58:42;;;;;;;1.03;1.03;;;;;;;8.18;94.65;95094.69;5132847;27;20472;-58
2023/12/08 05:01:13;;;;;;;0.30;0.20;;;;;;;8.23;93.61;95086.00;5132039;27;20434;-57
2023/12/08 05:03:42;;;;;;;0.83;0.83;;;;;;;8.22;92.24;95093.13;5132234;27;20445;-57
2023/12/08 05:06:10;;;;;;;0.40;0.30;;;;;;;7.96;90.07;95086.19;5132214;28;20458;-58
2023/12/08 05:08:39;;;;;;;0.50;0.47;;;;;;;8.03;92.59;95083.28;5132299;27;20555;-57
2023/12/08 05:11:09;;;;;;;0.40;0.40;;;;;;;8.12;94.15;95085.16;5135093;27;20481;-57
2023/12/08 05:13:38;;;;;;;0.50;0.50;;;;;;;8.10;96.38;95082.00;5136060;27;20503;-57
2023/12/08 05:16:11;;;;;;;0.40;0.30;;;;;;;8.05;97.83;95092.53;5135942;27;20491;-58
2023/12/08 05:18:40;;;;;;;0.40;0.30;;;;;;;7.80;95.86;95091.63;5136273;27;20521;-57
2023/12/08 05:21:09;;;;;;;0.30;0.20;;;;;;;7.85;94.13;95096.94;5135806;27;20465;-58
2023/12/08 05:23:38;;;;;;;1.67;1.03;;;;;;;7.92;93.57;95100.94;5135719;27;20446;-58
2023/12/08 05:26:07;;;;;;;0.30;0.30;;;;;;;7.99;90.67;95087.50;5135871;27;20426;-58
2023/12/08 05:28:37;;;;;;;0.40;0.30;;;;;;;8.00;93.31;95097.00;5134887;27;20446;-57
2023/12/08 05:31:06;;;;;;;0.43;0.43;;;;;;;8.01;94.96;95099.41;5135219;27;21062;-57
2023/12/08 05:33:35;;;;;;;1.13;0.77;;;;;;;8.00;95.60;95102.28;5135079;27;20445;-58
2023/12/08 05:36:05;;;;;;;0.40;0.40;;;;;;;8.06;97.22;95096.78;5135388;27;20503;-58
2023/12/08 05:38:34;;;;;;;1.03;1.03;;;;;;;8.17;97.20;95108.16;5135001;27;20442;-57
2023/12/08 05:41:03;;;;;;;1.10;1.10;;;;;;;7.98;98.45;95109.66;5135586;27;20434;-57
2023/12/08 05:43:31;;;;;;;1.73;1.63;;;;;;;7.95;100.00;95110.16;5134753;27;20446;-58
2023/12/08 05:46:02;;;;;;;0.43;0.40;;;;;;;7.90;100.00;95118.06;5135934;27;20792;-58
2023/12/08 05:48:30;;;;;;;0.60;0.60;;;;;;;7.89;100.00;95122.56;5134539;27;20855;-58
2023/12/08 05:50:59;;;;;;;1.33;1.20;;;;;;;7.93;100.00;95122.84;5134061;27;20477;-58
2023/12/08 05:53:28;;;;;;;1.43;0.60;;;;;;;7.99;100.00;95121.81;5134896;27;20439;-59
2023/12/08 05:55:56;;;;;;;0.67;0.60;;;;;;;7.91;99.97;95124.94;5135061;27;20430;-58
2023/12/08 05:58:25;;;;;;;3.17;1.20;;;;;;;7.88;99.17;95126.25;5134842;27;20963;-58
2023/12/08 06:00:54;;;;;;;0.50;0.40;;;;;;;7.88;97.83;95126.25;5134809;27;20430;-58
2023/12/08 06:03:24;;;;;;;0.60;0.60;;;;;;;7.53;100.00;95079.38;5134315;27;20778;-58
2023/12/08 06:05:52;;;;;;;0.50;0.50;;;;;;;7.83;98.87;95130.69;5135142;27;20430;-58
2023/12/08 06:08:21;;;;;;;1.20;0.70;;;;;;;7.88;99.81;95131.53;5134086;27;20946;-58
2023/12/08 06:10:50;;;;;;;0.60;0.30;;;;;;;7.87;100.00;95126.53;5134711;27;20462;-58
2023/12/08 06:13:18;;;;;;;2.03;0.40;;;;;;;7.90;100.00;95131.25;5108252;27;20431;-58
2023/12/08 06:15:47;;;;;;;0.50;0.50;;;;;;;7.44;100.00;95077.47;5134955;27;20483;-57
2023/12/08 06:18:15;;;;;;;1.03;0.47;;;;;;;7.90;100.00;95144.44;5134428;27;20525;-58
2023/12/08 06:20:46;;;;;;;1.63;0.83;;;;;;;7.90;100.00;95152.38;5135190;27;20427;-58
2023/12/08 06:23:14;;;;;;;0.63;0.63;;;;;;;7.92;100.00;95155.56;5134957;27;20476;-59
2023/12/08 06:25:43;;;;;;;1.00;0.90;;;;;;;7.89;100.00;95161.34;5134166;27;20441;-59
2023/12/08 06:28:12;;;;;;;1.40;1.30;;;;;;;7.90;100.00;95160.28;5134687;27;20446;-58
2023/12/08 06:30:41;;;;;;;1.00;1.00;;;;;;;7.73;100.00;95164.94;5134282;27;20470;-59
2023/12/08 06:33:10;;;;;;;1.80;1.70;;;;;;;7.58;96.48;95165.66;5134580;27;20491;-58
2023/12/08 06:35:39;;;;;;;0.53;0.53;;;;;;;7.43;96.31;95171.63;5134757;27;20453;-58
2023/12/08 06:38:10;;;;;;;1.67;1.57;;;;;;;7.26;93.14;95180.69;5134491;27;20437;-59
2023/12/08 06:40:41;;;;;;;1.80;1.70;;;;;;;7.51;93.53;95173.75;5134261;27;20434;-58
2023/12/08 06:43:10;;;;;;;0.63;0.60;;;;;;;7.47;92.89;95172.69;5134361;27;20464;-58
2023/12/08 06:45:38;;;;;;;10.13;1.23;;;;;;;7.55;90.19;95164.31;5134836;27;20857;-57
2023/12/08 06:48:08;;;;;;;0.50;0.50;;;;;;;7.47;90.31;95177.97;5134188;27;20844;-57
2023/12/08 06:50:37;;;;;;;0.93;0.80;;;;;;;7.41;90.15;95176.31;5133699;27;20569;-58
2023/12/08 06:53:05;;;;;;;0.80;0.80;;;;;;;7.20;92.31;95176.41;5134252;27;20445;-58
2023/12/08 06:55:35;;;;;;;0.50;0.50;;;;;;;7.18;92.26;95174.06;5134419;27;20800;-58
2023/12/08 06:58:04;;;;;;;2.50;0.70;;;;;;;7.38;93.92;95179.50;5132393;27;20442;-58
2023/12/08 07:00:32;;;;;;;0.90;0.90;;;;;;;7.51;90.85;95179.03;5122624;27;20537;-58
2023/12/08 07:03:02;;;;;;;0.50;0.30;;;;;;;7.45;89.31;95180.06;5134018;27;20431;-58
2023/12/08 07:05:30;;;;;;;1.37;1.10;;;;;;;7.55;90.61;95187.25;5133768;27;20515;-58
2023/12/08 07:07:59;;;;;;;0.67;0.67;;;;;;;7.64;90.91;95185.72;5133514;27;20854;-58
2023/12/08 07:10:28;;;;;;;0.53;0.53;;;;;;;7.61;91.15;95192.28;5134126;27;20473;-57
2023/12/08 07:12:58;;;;;;;2.63;1.47;;;;;;;7.54;89.04;95183.81;5133903;27;20430;-57
2023/12/08 07:15:26;;;;;;;2.10;0.90;;;;;;;7.74;87.29;95185.00;5133971;27;20434;-58
2023/12/08 07:17:55;;;;;;;0.90;0.80;;;;;;;7.77;86.51;95187.91;5133874;27;20441;-57
2023/12/08 07:20:24;;;;;;;0.70;0.70;;;;;;;7.75;87.29;95192.66;5133575;27;20478;-57
2023/12/08 07:22:52;;;;;;;0.83;0.80;;;;;;;7.59;86.10;95193.59;5133175;27;20449;-57
2023/12/08 07:25:21;;;;;;;1.00;1.00;;;;;;;7.59;86.34;95191.75;5133572;27;20470;-57
2023/12/08 07:27:51;;;;;;;1.03;1.00;;;;;;;7.63;85.79;95186.78;5133410;27;20434;-58
2023/12/08 07:30:21;;;;;;;0.60;0.60;;;;;;;7.57;86.23;95193.84;5133436;27;20521;-58
2023/12/08 07:32:50;;;;;;;1.00;0.43;;;;;;;7.75;86.78;95191.84;5133162;27;20521;-57
2023/12/08 07:35:20;;;;;;;0.53;0.53;;;;;;;7.73;84.25;95188.69;5133294;27;20439;-57
2023/12/08 07:37:49;;;;;;;0.93;0.93;;;;;;;7.89;84.06;95195.66;5133098;27;21053;-57
2023/12/08 07:40:17;;;;;;;0.57;0.57;;;;;;;7.71;82.10;95186.31;5133125;27;20434;-56
2023/12/08 07:42:47;;;;;;;1.07;0.87;;;;;;;7.89;84.37;95206.22;5133063;27;20442;-57
2023/12/08 07:45:15;;;;;;;0.40;0.27;;;;;;;7.96;82.32;95202.28;5127673;27;20440;-56
2023/12/08 07:47:45;;;;;;;0.40;0.30;;;;;;;8.04;80.44;95198.38;5122827;27;20434;-57
2023/12/08 07:50:17;;;;;;;0.30;0.30;;;;;;;7.70;81.13;95195.25;5132027;27;20511;-57
2023/12/08 07:52:46;;;;;;;0.30;0.30;;;;;;;7.64;81.53;95202.34;5133469;27;20547;-57
2023/12/08 07:55:16;;;;;;;0.40;0.30;;;;;;;7.42;81.37;95209.56;5132799;27;20453;-57
2023/12/08 07:57:46;;;;;;;0.47;0.40;;;;;;;7.66;82.39;95205.50;5132181;27;20435;-57
2023/12/08 08:00:15;;;;;;;2.53;0.73;;;;;;;7.38;82.51;95208.50;5132591;27;20434;-57
2023/12/08 08:02:46;;;;;;;0.50;0.30;;;;;;;7.71;82.37;95214.53;5119176;27;20802;-58
2023/12/08 08:05:15;;;;;;;0.43;0.33;;;;;;;7.84;83.40;95211.44;5131700;27;20803;-57
2023/12/08 08:07:44;;;;;;;0.43;0.43;;;;;;;7.93;82.67;95202.00;5132997;27;20487;-57
2023/12/08 08:10:13;;;;;;;0.50;0.50;;;;;;;7.97;82.55;95211.00;5132210;27;20483;-58
2023/12/08 08:12:41;;;;;;;0.57;0.40;;;;;;;7.94;80.43;95211.53;5132948;27;20522;-57
2023/12/08 08:15:10;;;;;;;0.67;0.67;;;;;;;7.79;80.19;95211.41;5106529;27;21025;-58
2023/12/08 08:17:38;;;;;;;2.30;0.80;;;;;;;7.79;81.19;95206.94;5132815;27;20522;-57
2023/12/08 08:20:09;;;;;;;0.50;0.40;;;;;;;7.90;80.11;95213.06;5131909;27;20478;-57
2023/12/08 08:22:38;;;;;;;0.33;0.30;;;;;;;7.18;80.76;95204.88;5121220;27;20453;-56
2023/12/08 08:25:07;;;;;;;0.40;0.40;;;;;;;7.67;81.72;95212.38;5132386;27;20473;-57
2023/12/08 08:27:37;;;;;;;0.30;0.30;;;;;;;7.87;80.11;95208.31;5132079;27;20471;-58
2023/12/08 08:30:07;;;;;;;0.70;0.50;;;;;;;8.05;80.05;95205.22;5132369;27;20443;-57
2023/12/08 08:32:35;;;;;;;0.70;0.70;;;;;;;7.72;79.96;95205.53;5131879;27;21015;-58
2023/12/08 08:35:05;;;;;;;0.70;0.43;;;;;;;7.72;81.75;95211.63;5132297;27;20848;-57
2023/12/08 08:37:35;;;;;;;0.70;0.70;;;;;;;7.67;79.99;95193.94;5132804;27;20479;-58
2023/12/08 08:40:05;;;;;;;0.40;0.40;;;;;;;7.67;78.40;95193.94;5132576;28;20435;-57
2023/12/08 08:42:36;;;;;;;0.30;0.30;;;;;;;8.14;81.30;95201.88;5132246;28;20873;-58
2023/12/08 08:45:06;;;;;;;0.97;0.47;;;;;;;8.22;79.57;95195.31;5132907;27;20488;-57
2023/12/08 08:47:34;;;;;;;0.40;0.40;;;;;;;7.95;79.29;95190.13;5136146;27;20438;-56
2023/12/08 08:50:04;;;;;;;0.97;0.97;;;;;;;8.01;77.94;95183.06;5136350;27;20495;-56
2023/12/08 08:52:35;;;;;;;0.80;0.57;;;;;;;7.79;77.40;95175.28;5136447;27;20470;-57
2023/12/08 08:55:05;;;;;;;0.50;0.50;;;;;;;7.85;80.95;95184.81;5136213;27;20431;-58
2023/12/08 08:57:34;;;;;;;0.53;0.47;;;;;;;7.81;79.24;95182.94;5136341;27;20446;-57
2023/12/08 09:00:04;;;;;;;0.73;0.73;;;;;;;8.01;80.13;95175.94;5135764;27;20521;-57
2023/12/08 09:02:33;;;;;;;0.40;0.27;;;;;;;8.17;78.47;95174.94;5136659;27;20512;-57
2023/12/08 09:05:02;;;;;;;1.07;0.97;;;;;;;8.20;77.41;95171.00;5136079;27;20431;-58
2023/12/08 09:07:31;;;;;;;0.50;0.30;;;;;;;8.18;77.38;95176.53;5136444;27;20938;-58
2023/12/08 09:10:03;;;;;;;0.40;0.30;;;;;;;8.05;77.26;95178.84;5109268;27;20442;-58
2023/12/08 09:12:32;;;;;;;0.40;0.30;;;;;;;8.55;74.98;95173.78;5135937;27;20526;-57
2023/12/08 09:15:00;;;;;;;0.40;0.30;;;;;;;8.40;74.30;95165.81;5136408;27;20471;-58
2023/12/08 09:17:29;;;;;;;0.40;0.30;;;;;;;8.47;75.03;95161.13;5135885;27;20441;-57
2023/12/08 09:19:58;;;;;;;1.40;1.30;;;;;;;8.84;77.17;95168.84;5136016;27;20431;-57
2023/12/08 09:22:26;;;;;;;0.40;0.40;;;;;;;8.66;76.08;95154.28;5135646;27;20446;-57
2023/12/08 09:24:55;;;;;;;0.77;0.47;;;;;;;8.70;76.39;95157.22;5136174;27;20430;-58
2023/12/08 09:27:25;;;;;;;4.47;0.57;;;;;;;8.60;74.51;95150.03;5135773;27;20437;-57
2023/12/08 09:29:55;;;;;;;0.40;0.40;;;;;;;8.63;73.92;95144.22;5136352;27;20434;-57
2023/12/08 09:32:23;;;;;;;1.63;0.50;;;;;;;8.84;72.57;95153.81;5122124;27;20479;-58
2023/12/08 09:34:52;;;;;;;0.80;0.80;;;;;;;8.79;71.80;95148.50;5135545;27;20426;-57
2023/12/08 09:37:21;;;;;;;0.30;0.30;;;;;;;8.81;73.92;95142.94;5135390;27;20430;-58
2023/12/08 09:40:04;;;;;;;0.53;0.50;;;;;;;9.21;72.31;95142.22;5134071;27;20446;-57
2023/12/08 09:42:37;;;;;;;0.40;0.33;;;;;;;9.21;72.12;95137.69;5135603;27;21121;-58
2023/12/08 09:45:09;;;;;;;0.30;0.20;;;;;;;9.23;70.51;95132.16;5135141;27;20479;-58
2023/12/08 09:47:39;;;;;;;0.47;0.43;;;;;;;9.28;71.61;95134.81;5135713;27;20434;-58
2023/12/08 09:50:10;;;;;;;0.60;0.60;;;;;;;9.38;71.75;95117.09;5134577;27;20493;-58
2023/12/08 09:52:40;;;;;;;0.47;0.47;;;;;;;9.07;70.90;95122.63;5135352;27;20480;-59
2023/12/08 09:55:11;;;;;;;0.93;0.93;;;;;;;9.23;70.96;95118.94;5134994;27;20478;-59
2023/12/08 09:57:43;;;;;;;11.93;1.20;;;;;;;9.51;69.28;95113.09;5135186;27;20442;-59
2023/12/08 10:00:13;;;;;;;1.37;0.80;;;;;;;9.64;70.78;95117.81;5134915;27;20431;-59
2023/12/08 10:02:43;;;;;;;2.80;1.43;;;;;;;9.58;69.93;95110.97;5135336;27;20434;-59
2023/12/08 10:05:11;;;;;;;2.10;1.00;;;;;;;9.68;69.56;95107.50;5135009;27;21037;-60
2023/12/08 10:07:43;;;;;;;0.43;0.43;;;;;;;9.71;69.57;95105.13;5134161;27;20438;-58
2023/12/08 10:10:12;;;;;;;0.40;0.30;;;;;;;9.41;68.42;95099.88;5135083;27;20909;-58
2023/12/08 10:12:43;;;;;;;0.40;0.30;;;;;;;9.56;68.63;95097.22;5133637;27;20470;-58
2023/12/08 10:15:12;;;;;;;0.33;0.27;;;;;;;9.57;69.29;95094.28;5135175;27;21069;-59
2023/12/08 10:17:51;;;;;;;0.60;0.43;;;;;;;9.76;69.79;95096.38;5134631;27;20435;-59
2023/12/08 10:20:22;;;;;;;0.60;0.50;;;;;;;9.59;73.37;95096.66;5134736;27;20820;-60
2023/12/08 10:22:53;;;;;;;0.60;0.60;;;;;;;9.56;72.64;95074.16;5134518;27;20449;-59
2023/12/08 10:25:23;;;;;;;0.57;0.40;;;;;;;9.53;73.13;95095.09;5134561;27;20438;-58
2023/12/08 10:27:55;;;;;;;0.67;0.50;;;;;;;9.43;74.16;95095.13;5133836;27;20481;-58
2023/12/08 10:30:24;;;;;;;9.40;0.60;;;;;;;9.43;74.19;95080.03;5119891;27;20489;-59
2023/12/08 10:32:53;;;;;;;1.43;0.40;;;;;;;9.49;76.04;95089.53;5126595;27;20472;-59
2023/12/08 10:35:23;;;;;;;2.30;0.73;;;;;;;9.31;75.99;95086.69;5123285;27;20437;-60
2023/12/08 10:37:52;;;;;;;0.40;0.40;;;;;;;9.53;74.74;95081.88;5134411;27;21041;-59
2023/12/08 10:40:22;;;;;;;2.20;0.80;;;;;;;9.55;75.23;95082.41;5134804;27;20879;-60
2023/12/08 10:42:50;;;;;;;0.43;0.40;;;;;;;9.71;74.41;95075.22;5134117;27;20962;-59
2023/12/08 10:45:21;;;;;;;0.63;0.40;;;;;;;9.75;75.74;95069.09;5134646;27;20513;-59
2023/12/08 10:47:50;;;;;;;1.90;0.90;;;;;;;9.50;74.80;95069.97;5134654;27;20427;-59
2023/12/08 10:50:21;;;;;;;0.40;0.30;;;;;;;9.56;74.86;95047.72;5133648;27;20474;-59
2023/12/08 10:52:51;;;;;;;0.30;0.20;;;;;;;9.78;74.32;95067.78;5134577;27;20561;-60
2023/12/08 10:55:20;;;;;;;0.30;0.20;;;;;;;9.54;74.31;95071.00;5134310;27;20442;-59
2023/12/08 10:57:51;;;;;;;0.77;0.77;;;;;;;9.05;76.48;95003.16;5134155;27;20439;-58
2023/12/08 11:00:24;;;;;;;0.70;0.70;;;;;;;9.62;76.04;95059.09;5108140;27;20438;-58
2023/12/08 11:02:53;;;;;;;3.33;0.80;;;;;;;9.67;76.07;95060.91;5133733;27;20449;-58
2023/12/08 11:05:28;;;;;;;3.00;1.23;;;;;;;9.59;75.94;95060.41;5133904;27;20812;-59
2023/12/08 11:07:58;;;;;;;3.03;1.37;;;;;;;9.23;76.19;95011.31;5132608;27;20444;-59
2023/12/08 11:10:32;;;;;;;1.43;0.40;;;;;;;9.41;76.13;94983.50;5134267;27;20505;-59
2023/12/08 11:13:07;;;;;;;0.40;0.40;;;;;;;9.82;76.52;95051.06;5133017;27;20470;-58
2023/12/08 11:15:43;;;;;;;1.90;0.57;;;;;;;9.62;75.20;95045.84;5133847;27;20448;-59
2023/12/08 11:18:18;;;;;;;1.00;0.80;;;;;;;9.48;75.03;95066.00;5107826;27;20937;-59
2023/12/08 11:20:47;;;;;;;0.73;0.73;;;;;;;9.68;73.38;95052.72;5133401;27;20453;-58
2023/12/08 11:23:18;;;;;;;2.00;1.80;;;;;;;9.68;71.92;95051.94;5133463;27;20442;-59
2023/12/08 11:25:57;;;;;;;0.60;0.60;;;;;;;9.73;73.42;95044.78;5133601;27;20515;-59
2023/12/08 11:28:33;;;;;;;1.33;0.57;;;;;;;9.42;74.78;95059.13;5133464;27;20521;-59
2023/12/08 11:31:10;;;;;;;1.83;1.73;;;;;;;9.96;73.24;95051.31;5133854;27;20517;-58
2023/12/08 11:33:44;;;;;;;0.43;0.40;;;;;;;10.03;71.06;95047.28;5133036;27;20472;-60
2023/12/08 11:36:18;;;;;;;0.90;0.30;;;;;;;10.11;71.31;95043.28;5133237;27;20450;-59
2023/12/08 11:38:47;;;;;;;0.70;0.70;;;;;;;9.74;73.92;95050.88;5132881;27;20430;-58
2023/12/08 11:41:18;;;;;;;0.93;0.40;;;;;;;9.85;73.44;95047.09;5122143;27;20439;-59
2023/12/08 11:43:46;;;;;;;1.70;1.13;;;;;;;9.42;74.34;95032.69;5130447;27;20427;-58
2023/12/08 11:46:16;;;;;;;1.47;0.80;;;;;;;9.28;73.93;95048.34;5133266;27;20438;-58
2023/12/08 11:48:49;;;;;;;0.90;0.87;;;;;;;9.22;75.97;95048.59;5132442;27;20977;-58